Time;durP1;ratioP1;P1;durP2;ratioP2;P2;SDS_P1;SDS_P2;PMS_P1;PMS_P2;Temp;Humidity;BMP_temperature;BMP_pressure;BME280_temperature;BME280_humidity;BME280_pressure;Samples;Min_cycle;Max_cycle;Signal;HPM_P1;HPM_P2
2020/12/15 00:01:09;;;;;;;4.00;3.70;;;15.00;71.40;;;;;;5075589;28;20521;-52
2020/12/15 00:03:36;;;;;;;4.20;3.50;;;15.00;71.20;;;;;;5076313;28;20438;-55
2020/12/15 00:06:03;;;;;;;3.93;3.10;;;15.10;71.00;;;;;;5076079;28;20474;-54
2020/12/15 00:08:30;;;;;;;3.77;3.57;;;15.10;71.10;;;;;;5069060;28;20478;-55
2020/12/15 00:10:57;;;;;;;3.70;3.50;;;15.00;71.00;;;;;;5069791;28;20590;-51
2020/12/15 00:13:24;;;;;;;3.57;3.37;;;15.00;71.30;;;;;;5076385;28;20484;-54
2020/12/15 00:15:51;;;;;;;3.80;3.50;;;14.90;71.40;;;;;;5076015;28;20469;-53
2020/12/15 00:18:18;;;;;;;3.97;3.67;;;14.90;71.30;;;;;;5075683;28;20512;-52
2020/12/15 00:20:44;;;;;;;4.00;3.60;;;14.90;71.50;;;;;;5075236;28;20458;-55
2020/12/15 00:23:11;;;;;;;3.70;3.50;;;15.00;71.40;;;;;;5074718;28;20472;-54
2020/12/15 00:25:38;;;;;;;3.40;3.17;;;15.00;71.30;;;;;;5072409;28;20557;-54
2020/12/15 00:28:06;;;;;;;5.20;3.70;;;15.00;71.10;;;;;;5074621;28;20469;-53
2020/12/15 00:30:33;;;;;;;4.07;3.73;;;15.00;71.40;;;;;;5073886;28;20489;-55
2020/12/15 00:33:00;;;;;;;3.33;3.13;;;15.00;71.40;;;;;;5073958;28;20461;-54
2020/12/15 00:35:27;;;;;;;3.73;3.47;;;15.00;71.40;;;;;;5074662;28;20477;-55
2020/12/15 00:37:54;;;;;;;3.73;3.43;;;14.90;71.50;;;;;;5074552;28;20441;-55
2020/12/15 00:40:21;;;;;;;3.77;3.57;;;14.90;71.50;;;;;;5073826;28;20468;-54
2020/12/15 00:42:48;;;;;;;3.97;3.57;;;14.90;71.50;;;;;;5074526;28;20458;-54
2020/12/15 00:45:16;;;;;;;4.63;3.57;;;15.00;71.50;;;;;;5074385;28;20453;-56
2020/12/15 00:47:42;;;;;;;3.87;3.60;;;15.00;71.40;;;;;;5073974;28;20526;-52
2020/12/15 00:50:12;;;;;;;3.40;3.20;;;15.00;71.30;;;;;;5073686;28;20470;-56
2020/12/15 00:52:39;;;;;;;3.80;3.50;;;15.00;71.20;;;;;;5068693;28;20446;-57
2020/12/15 00:55:06;;;;;;;3.37;3.17;;;14.90;71.40;;;;;;5074076;28;20474;-56
2020/12/15 00:57:33;;;;;;;3.93;3.63;;;15.00;71.40;;;;;;5074105;28;20525;-57
2020/12/15 01:00:00;;;;;;;3.60;3.40;;;15.00;71.40;;;;;;5070711;28;20517;-55
2020/12/15 01:02:27;;;;;;;5.17;3.53;;;15.00;71.20;;;;;;5071957;28;20477;-54
2020/12/15 01:04:55;;;;;;;3.33;3.13;;;14.90;71.40;;;;;;5074158;28;20438;-53
2020/12/15 01:07:22;;;;;;;3.67;3.37;;;14.90;71.30;;;;;;5074568;28;20473;-54
2020/12/15 01:09:49;;;;;;;3.70;3.40;;;14.90;71.40;;;;;;5074355;28;20556;-56
2020/12/15 01:12:15;;;;;;;4.00;3.43;;;14.80;71.60;;;;;;5075111;28;20522;-56
2020/12/15 01:14:42;;;;;;;3.57;2.93;;;14.90;71.70;;;;;;5074754;28;20434;-56
2020/12/15 01:17:09;;;;;;;3.50;3.30;;;14.90;71.60;;;;;;5075451;28;20437;-55
2020/12/15 01:19:37;;;;;;;3.27;2.87;;;14.90;71.70;;;;;;5064501;28;20517;-54
2020/12/15 01:22:04;;;;;;;2.90;2.80;;;14.90;71.50;;;;;;5055116;28;20434;-55
2020/12/15 01:24:31;;;;;;;3.10;2.90;;;14.80;71.60;;;;;;5068744;28;20550;-54
2020/12/15 01:26:58;;;;;;;3.40;3.20;;;14.90;71.50;;;;;;5073532;28;20521;-54
2020/12/15 01:29:25;;;;;;;3.10;2.90;;;14.90;71.50;;;;;;5072691;28;20522;-55
2020/12/15 01:31:51;;;;;;;3.23;3.03;;;14.90;71.60;;;;;;5073200;28;20529;-56
2020/12/15 01:34:19;;;;;;;3.87;3.17;;;14.90;71.70;;;;;;5073515;28;20564;-56
2020/12/15 01:36:47;;;;;;;3.40;3.20;;;14.90;71.70;;;;;;5073415;28;20429;-55
2020/12/15 01:39:14;;;;;;;3.30;3.00;;;14.80;71.60;;;;;;5073597;28;20520;-55
2020/12/15 01:41:41;;;;;;;3.27;3.07;;;14.80;71.80;;;;;;5072433;28;20521;-52
2020/12/15 01:44:08;;;;;;;3.07;2.87;;;14.90;71.70;;;;;;5073370;28;20434;-52
2020/12/15 01:46:35;;;;;;;3.93;3.20;;;14.90;71.50;;;;;;5070942;28;20505;-56
2020/12/15 01:49:02;;;;;;;3.37;3.07;;;14.80;71.70;;;;;;5072878;28;20429;-56
2020/12/15 01:51:29;;;;;;;3.37;3.07;;;14.90;71.70;;;;;;5071818;28;20536;-54
2020/12/15 01:53:58;;;;;;;3.40;3.20;;;14.80;71.60;;;;;;5072740;28;20430;-56
2020/12/15 01:56:25;;;;;;;3.13;2.93;;;14.90;71.70;;;;;;5072887;28;20434;-58
2020/12/15 01:58:54;;;;;;;3.23;3.00;;;14.80;71.70;;;;;;5073292;28;20453;-56
2020/12/15 02:01:21;;;;;;;2.97;2.77;;;14.90;71.50;;;;;;5072563;28;20480;-56
2020/12/15 02:03:48;;;;;;;3.13;2.93;;;14.80;71.70;;;;;;5073175;28;20442;-56
2020/12/15 02:06:14;;;;;;;2.80;2.60;;;14.90;71.60;;;;;;5072917;28;20490;-56
2020/12/15 02:08:42;;;;;;;3.00;2.90;;;14.90;71.60;;;;;;5072640;28;20465;-57
2020/12/15 02:11:10;;;;;;;2.83;2.67;;;14.80;71.70;;;;;;5071831;28;20465;-57
2020/12/15 02:13:37;;;;;;;2.93;2.83;;;14.80;71.80;;;;;;5070421;28;20448;-55
2020/12/15 02:16:05;;;;;;;2.90;2.80;;;14.80;71.80;;;;;;5072870;28;20438;-55
2020/12/15 02:18:33;;;;;;;3.03;2.83;;;14.90;71.70;;;;;;5072882;28;20434;-56
2020/12/15 02:21:02;;;;;;;3.30;3.10;;;14.80;71.70;;;;;;5065018;28;20571;-56
2020/12/15 02:23:30;;;;;;;2.90;2.70;;;14.80;71.80;;;;;;5064578;28;20488;-55
2020/12/15 02:25:57;;;;;;;2.90;2.70;;;14.70;72.00;;;;;;5067603;28;20461;-55
2020/12/15 02:28:24;;;;;;;3.20;2.90;;;14.80;71.70;;;;;;5072666;28;20464;-57
2020/12/15 02:30:50;;;;;;;3.03;2.80;;;14.80;71.90;;;;;;5072095;28;20507;-54
2020/12/15 02:33:17;;;;;;;3.10;2.90;;;14.80;71.90;;;;;;5072214;28;20516;-57
2020/12/15 02:35:44;;;;;;;3.10;2.90;;;14.90;71.80;;;;;;5072730;28;20485;-58
2020/12/15 02:38:11;;;;;;;3.00;2.80;;;14.80;71.70;;;;;;5072665;28;20465;-55
2020/12/15 02:40:39;;;;;;;2.83;2.63;;;14.90;71.70;;;;;;5071860;28;20480;-56
2020/12/15 02:43:06;;;;;;;3.27;3.00;;;14.80;71.70;;;;;;5072359;28;20464;-52
2020/12/15 02:45:33;;;;;;;6.60;2.53;;;14.80;71.70;;;;;;5072195;28;20512;-57
2020/12/15 02:48:00;;;;;;;2.97;2.70;;;14.80;71.80;;;;;;5072328;28;20533;-56
2020/12/15 02:50:26;;;;;;;3.17;2.97;;;14.80;71.80;;;;;;5072902;28;20481;-56
2020/12/15 02:52:54;;;;;;;3.17;2.97;;;14.70;72.00;;;;;;5073683;28;20513;-54
2020/12/15 02:55:22;;;;;;;2.90;2.60;;;14.80;71.90;;;;;;5073606;28;20446;-52
2020/12/15 02:57:50;;;;;;;3.40;3.07;;;14.60;72.00;;;;;;5073511;28;20442;-55
2020/12/15 03:00:17;;;;;;;3.93;3.13;;;14.70;71.80;;;;;;5072717;28;20517;-55
2020/12/15 03:02:46;;;;;;;3.27;2.97;;;14.70;71.90;;;;;;5075400;28;20441;-57
2020/12/15 03:05:12;;;;;;;2.83;2.63;;;14.70;71.80;;;;;;5077083;28;20483;-57
2020/12/15 03:07:39;;;;;;;5.50;2.87;;;14.80;71.80;;;;;;5077335;28;20438;-57
2020/12/15 03:10:06;;;;;;;3.20;3.00;;;14.80;71.70;;;;;;5076815;28;20540;-54
2020/12/15 03:12:33;;;;;;;3.10;2.90;;;14.70;71.70;;;;;;5077373;28;20502;-55
2020/12/15 03:15:01;;;;;;;3.13;2.90;;;14.70;71.80;;;;;;5076838;28;20438;-52
2020/12/15 03:17:29;;;;;;;3.30;3.00;;;14.60;71.80;;;;;;5077159;28;20477;-56
2020/12/15 03:19:56;;;;;;;2.80;2.60;;;14.70;71.90;;;;;;5076511;28;20560;-57
2020/12/15 03:22:22;;;;;;;3.03;2.67;;;14.60;71.90;;;;;;5077073;28;20492;-55
2020/12/15 03:24:49;;;;;;;3.27;2.97;;;14.70;72.00;;;;;;5077260;28;20485;-57
2020/12/15 03:27:16;;;;;;;2.80;2.63;;;14.70;71.80;;;;;;5077035;28;20438;-57
2020/12/15 03:29:43;;;;;;;3.33;3.13;;;14.70;71.90;;;;;;5076643;28;20484;-53
2020/12/15 03:32:11;;;;;;;3.00;2.90;;;14.70;71.70;;;;;;5076935;28;20438;-56
2020/12/15 03:34:39;;;;;;;3.33;3.13;;;14.70;71.70;;;;;;5076740;28;20497;-54
2020/12/15 03:37:05;;;;;;;2.80;2.70;;;14.70;71.80;;;;;;5077150;28;20454;-53
2020/12/15 03:39:34;;;;;;;3.87;3.20;;;14.70;71.80;;;;;;5076617;28;20530;-56
2020/12/15 03:42:00;;;;;;;2.43;2.33;;;14.70;71.80;;;;;;5076628;28;20448;-52
2020/12/15 03:44:28;;;;;;;2.50;2.40;;;14.60;71.90;;;;;;5076897;28;20466;-54
2020/12/15 03:46:55;;;;;;;2.70;2.60;;;14.70;71.80;;;;;;5076713;28;20472;-53
2020/12/15 03:49:23;;;;;;;2.70;2.50;;;14.60;71.80;;;;;;5070395;28;20473;-56
2020/12/15 03:51:50;;;;;;;3.07;2.77;;;14.70;71.90;;;;;;5056180;28;20474;-57
2020/12/15 03:54:17;;;;;;;2.70;2.60;;;14.60;71.80;;;;;;5056529;28;20446;-54
2020/12/15 03:56:44;;;;;;;2.73;2.57;;;14.50;72.30;;;;;;5056359;28;20473;-53
2020/12/15 03:59:11;;;;;;;3.07;2.87;;;14.60;72.10;;;;;;5056633;28;20435;-53
2020/12/15 04:01:38;;;;;;;2.90;2.70;;;14.60;71.90;;;;;;5056204;28;20439;-54
2020/12/15 04:04:06;;;;;;;2.63;2.43;;;14.60;71.80;;;;;;5056041;28;20477;-56
2020/12/15 04:06:34;;;;;;;3.10;2.80;;;14.70;71.70;;;;;;5056403;28;20435;-53
2020/12/15 04:09:00;;;;;;;2.67;2.57;;;14.60;71.80;;;;;;5056152;28;20527;-50
2020/12/15 04:11:29;;;;;;;2.70;2.50;;;14.60;71.90;;;;;;5055648;28;20488;-54
2020/12/15 04:13:55;;;;;;;3.10;2.80;;;14.60;71.50;;;;;;5055585;28;20510;-53
2020/12/15 04:16:22;;;;;;;2.67;2.57;;;14.60;71.70;;;;;;5056174;28;20434;-54
2020/12/15 04:18:49;;;;;;;3.60;2.90;;;14.60;71.90;;;;;;5055928;28;20430;-51
2020/12/15 04:21:16;;;;;;;3.10;2.90;;;14.50;71.80;;;;;;5055465;28;20466;-53
2020/12/15 04:23:44;;;;;;;3.30;3.00;;;14.60;71.80;;;;;;5055915;28;20451;-55
2020/12/15 04:26:10;;;;;;;2.50;2.40;;;14.50;71.80;;;;;;5073374;28;20533;-50
2020/12/15 04:28:37;;;;;;;2.97;2.77;;;14.60;72.40;;;;;;5076120;28;20505;-53
2020/12/15 04:31:04;;;;;;;3.13;2.83;;;14.60;71.60;;;;;;5075484;28;20512;-55
2020/12/15 04:33:31;;;;;;;3.23;2.93;;;14.50;71.80;;;;;;5075392;28;20438;-54
2020/12/15 04:35:58;;;;;;;2.77;2.67;;;14.50;71.70;;;;;;5075549;28;20540;-53
2020/12/15 04:38:25;;;;;;;2.67;2.57;;;14.50;71.70;;;;;;5075825;28;20554;-54
2020/12/15 04:40:52;;;;;;;2.70;2.50;;;14.50;71.70;;;;;;5075561;28;20560;-52
2020/12/15 04:43:19;;;;;;;3.37;3.17;;;14.50;71.70;;;;;;5075832;28;20495;-53
2020/12/15 04:45:46;;;;;;;3.00;2.70;;;14.50;71.80;;;;;;5075658;28;20429;-54
2020/12/15 04:48:16;;;;;;;2.60;2.50;;;14.50;71.70;;;;;;5075615;28;20522;-55
2020/12/15 04:50:43;;;;;;;2.80;2.60;;;14.60;71.70;;;;;;5074444;28;20516;-51
2020/12/15 04:53:10;;;;;;;2.60;2.50;;;14.60;71.50;;;;;;5075532;28;20511;-51
2020/12/15 04:55:37;;;;;;;3.20;3.00;;;14.50;71.70;;;;;;5075779;28;20449;-52
2020/12/15 04:58:06;;;;;;;3.10;2.90;;;14.40;71.80;;;;;;5075260;28;20452;-51
2020/12/15 05:00:34;;;;;;;2.40;2.30;;;14.50;71.90;;;;;;5074732;28;20433;-55
2020/12/15 05:03:02;;;;;;;2.50;2.40;;;14.50;71.70;;;;;;5075565;28;20434;-52
2020/12/15 05:05:30;;;;;;;2.80;2.70;;;14.50;71.70;;;;;;5075322;28;20469;-49
2020/12/15 05:08:00;;;;;;;3.37;3.13;;;14.50;71.60;;;;;;5075007;28;20503;-50
2020/12/15 05:10:27;;;;;;;3.33;3.10;;;14.40;71.60;;;;;;5074190;28;20557;-55
2020/12/15 05:12:54;;;;;;;3.60;2.93;;;14.50;71.70;;;;;;5075035;28;20444;-55
2020/12/15 05:15:22;;;;;;;2.73;2.63;;;14.50;71.60;;;;;;5075001;28;20529;-56
2020/12/15 05:17:49;;;;;;;3.07;2.80;;;14.50;71.50;;;;;;5074494;28;20434;-52
2020/12/15 05:20:17;;;;;;;3.17;2.83;;;14.50;71.40;;;;;;5074193;28;20561;-54
2020/12/15 05:22:44;;;;;;;5.03;2.67;;;14.50;71.50;;;;;;5074980;28;20441;-53
2020/12/15 05:25:24;;;;;;;2.87;2.67;;;14.50;71.70;;;;;;5074507;28;20534;-56
2020/12/15 05:27:51;;;;;;;3.10;2.90;;;14.40;71.90;;;;;;5074387;28;20540;-54
2020/12/15 05:30:18;;;;;;;3.47;3.27;;;14.40;71.70;;;;;;5073684;28;20477;-56
2020/12/15 05:32:50;;;;;;;2.87;2.67;;;14.40;71.60;;;;;;5074954;28;20450;-55
2020/12/15 05:35:23;;;;;;;3.30;3.10;;;14.40;71.60;;;;;;5074424;28;20525;-55
2020/12/15 05:37:50;;;;;;;3.17;3.00;;;14.40;71.70;;;;;;5074924;28;20505;-54
2020/12/15 05:40:17;;;;;;;3.07;2.87;;;14.40;71.60;;;;;;5073904;28;20552;-57
2020/12/15 05:42:44;;;;;;;3.00;2.73;;;14.40;71.60;;;;;;5074275;28;20499;-52
2020/12/15 05:45:18;;;;;;;2.93;2.73;;;14.40;71.60;;;;;;5062157;28;20457;-56
2020/12/15 05:47:45;;;;;;;2.87;2.70;;;14.40;71.60;;;;;;5054685;28;20472;-55
2020/12/15 05:50:17;;;;;;;2.57;2.37;;;14.40;71.90;;;;;;5053684;28;20489;-57
2020/12/15 05:52:54;;;;;;;4.50;2.70;;;14.40;71.90;;;;;;5054922;28;20434;-55
2020/12/15 05:55:20;;;;;;;2.90;2.70;;;14.50;71.50;;;;;;5054184;28;20446;-51
2020/12/15 05:57:47;;;;;;;2.50;2.40;;;14.40;71.60;;;;;;5054479;28;20442;-53
2020/12/15 06:00:14;;;;;;;3.27;2.83;;;14.40;71.60;;;;;;5053703;28;20508;-56
2020/12/15 06:02:42;;;;;;;2.60;2.50;;;14.40;71.60;;;;;;5065094;28;20446;-55
2020/12/15 06:05:09;;;;;;;3.30;3.10;;;14.40;71.70;;;;;;5074232;28;20526;-55
2020/12/15 06:07:37;;;;;;;2.93;2.63;;;14.40;71.70;;;;;;5074007;28;20507;-55
2020/12/15 06:10:05;;;;;;;2.90;2.70;;;14.40;71.70;;;;;;5073914;28;20492;-53
2020/12/15 06:12:32;;;;;;;4.90;2.93;;;14.40;71.70;;;;;;5073871;28;20499;-52
2020/12/15 06:14:59;;;;;;;3.47;3.20;;;14.50;71.60;;;;;;5074224;28;20433;-54
2020/12/15 06:17:25;;;;;;;2.87;2.67;;;14.50;71.50;;;;;;5074065;28;20442;-54
2020/12/15 06:19:53;;;;;;;3.17;2.67;;;14.40;71.50;;;;;;5073368;28;20540;-52
2020/12/15 06:22:21;;;;;;;3.00;2.80;;;14.40;71.40;;;;;;5073862;28;20533;-52
2020/12/15 06:24:55;;;;;;;3.30;3.10;;;14.40;71.60;;;;;;5074040;28;20477;-56
2020/12/15 06:27:32;;;;;;;4.00;2.97;;;14.40;71.60;;;;;;5074160;28;20445;-52
2020/12/15 06:29:59;;;;;;;2.87;2.67;;;14.40;71.50;;;;;;5073291;28;20537;-55
2020/12/15 06:32:26;;;;;;;2.70;2.60;;;14.40;71.70;;;;;;5073775;28;20484;-55
2020/12/15 06:34:53;;;;;;;2.73;2.57;;;14.40;71.90;;;;;;5073553;28;20469;-54
2020/12/15 06:37:20;;;;;;;3.03;2.83;;;14.40;71.90;;;;;;5073611;28;20437;-51
2020/12/15 06:39:58;;;;;;;3.13;2.93;;;14.40;71.80;;;;;;5073594;28;20454;-54
2020/12/15 06:42:25;;;;;;;3.30;3.00;;;14.40;72.00;;;;;;5074028;28;20433;-52
2020/12/15 06:44:59;;;;;;;3.00;2.80;;;14.40;71.90;;;;;;5073620;28;20517;-54
2020/12/15 06:47:26;;;;;;;2.80;2.60;;;14.40;71.80;;;;;;5073410;28;20434;-55
2020/12/15 06:49:53;;;;;;;3.20;3.00;;;14.30;71.80;;;;;;5073063;28;20536;-55
2020/12/15 06:52:26;;;;;;;3.13;2.93;;;14.40;71.80;;;;;;5073743;28;20469;-56
2020/12/15 06:54:56;;;;;;;3.20;3.00;;;14.20;72.20;;;;;;5069503;28;20534;-53
2020/12/15 06:57:31;;;;;;;3.23;3.03;;;14.20;72.30;;;;;;5054000;28;20475;-54
2020/12/15 06:59:59;;;;;;;3.30;3.10;;;14.30;72.10;;;;;;5053002;28;20465;-54
2020/12/15 07:02:28;;;;;;;3.43;3.23;;;14.40;72.10;;;;;;5053817;28;20449;-53
2020/12/15 07:05:18;;;;;;;2.83;2.73;;;14.30;72.00;;;;;;5067365;28;20461;-57
2020/12/15 07:07:47;;;;;;;3.20;2.90;;;14.30;72.00;;;;;;5073612;28;20483;-56
2020/12/15 07:10:14;;;;;;;2.73;2.63;;;14.40;72.00;;;;;;5072801;28;20433;-54
2020/12/15 07:12:45;;;;;;;2.50;2.40;;;14.40;71.90;;;;;;5073394;28;20465;-55
2020/12/15 07:15:12;;;;;;;4.43;3.30;;;14.40;71.80;;;;;;5073375;28;20430;-54
2020/12/15 07:17:43;;;;;;;2.83;2.73;;;14.30;72.00;;;;;;5073653;28;20509;-56
2020/12/15 07:20:10;;;;;;;2.57;2.43;;;14.50;72.00;;;;;;5072820;28;20489;-56
2020/12/15 07:22:36;;;;;;;3.40;2.80;;;14.40;72.20;;;;;;5073168;28;20462;-54
2020/12/15 07:25:03;;;;;;;2.60;2.50;;;14.40;72.20;;;;;;5073085;28;20529;-53
2020/12/15 07:27:31;;;;;;;2.70;2.50;;;14.40;72.00;;;;;;5073409;28;20480;-55
2020/12/15 07:29:59;;;;;;;2.93;2.83;;;14.40;72.00;;;;;;5072669;28;20492;-55
2020/12/15 07:32:26;;;;;;;3.07;2.87;;;14.30;72.10;;;;;;5073266;28;20524;-55
2020/12/15 07:35:00;;;;;;;2.87;2.67;;;14.40;72.10;;;;;;5073338;28;20433;-53
2020/12/15 07:37:28;;;;;;;3.30;2.87;;;14.40;72.00;;;;;;5065255;28;20554;-56
2020/12/15 07:39:56;;;;;;;3.20;3.00;;;14.40;72.30;;;;;;5065454;28;20442;-53
2020/12/15 07:42:22;;;;;;;2.53;2.43;;;14.40;72.20;;;;;;5069275;28;20457;-49
2020/12/15 07:44:57;;;;;;;3.03;2.60;;;14.40;72.00;;;;;;5073330;28;20445;-55
2020/12/15 07:47:25;;;;;;;5.83;2.80;;;14.40;72.00;;;;;;5073118;28;20421;-52
2020/12/15 07:49:55;;;;;;;4.30;2.80;;;14.40;72.10;;;;;;5054254;28;20508;-52
2020/12/15 07:52:29;;;;;;;2.50;2.30;;;14.50;72.00;;;;;;5056666;28;20474;-52
2020/12/15 07:55:01;;;;;;;2.90;2.70;;;14.40;72.10;;;;;;5056440;28;20478;-52
2020/12/15 07:57:28;;;;;;;3.33;3.10;;;14.30;72.30;;;;;;5066081;28;20499;-54
2020/12/15 07:59:56;;;;;;;2.60;2.43;;;14.50;72.10;;;;;;5076074;28;20468;-53
2020/12/15 08:02:23;;;;;;;2.77;2.60;;;14.50;72.10;;;;;;5076157;28;20476;-56
2020/12/15 08:04:51;;;;;;;3.00;2.60;;;14.50;72.10;;;;;;5076600;28;20438;-55
2020/12/15 08:07:18;;;;;;;3.00;2.80;;;14.50;72.00;;;;;;5076515;28;20473;-54
2020/12/15 08:09:47;;;;;;;3.43;3.13;;;14.50;72.10;;;;;;5075971;28;20441;-55
2020/12/15 08:12:14;;;;;;;2.70;2.50;;;14.60;71.70;;;;;;5076208;28;20544;-55
2020/12/15 08:14:58;;;;;;;3.20;3.00;;;14.60;71.80;;;;;;5075983;28;20433;-55
2020/12/15 08:17:25;;;;;;;2.77;2.67;;;14.60;71.80;;;;;;5076225;28;20477;-52
2020/12/15 08:19:58;;;;;;;3.57;3.27;;;14.50;71.80;;;;;;5075759;28;20450;-52
2020/12/15 08:22:25;;;;;;;3.40;3.20;;;14.60;71.70;;;;;;5076291;28;20430;-49
2020/12/15 08:24:52;;;;;;;3.97;3.00;;;14.60;71.70;;;;;;5076032;28;20481;-52
2020/12/15 08:27:19;;;;;;;2.77;2.63;;;14.70;71.70;;;;;;5075958;28;20476;-53
2020/12/15 08:29:45;;;;;;;3.73;3.20;;;14.70;71.70;;;;;;5075692;28;20502;-53
2020/12/15 08:32:12;;;;;;;2.90;2.70;;;14.60;71.70;;;;;;5075780;28;20587;-50
2020/12/15 08:34:39;;;;;;;2.83;2.73;;;14.70;71.50;;;;;;5075982;28;20472;-49
2020/12/15 08:37:07;;;;;;;3.60;3.30;;;14.70;71.40;;;;;;5075665;28;20473;-51
2020/12/15 08:39:35;;;;;;;2.83;2.73;;;14.70;71.70;;;;;;5075776;28;20498;-52
2020/12/15 08:42:03;;;;;;;2.90;2.70;;;14.70;71.60;;;;;;5063140;28;20439;-53
2020/12/15 08:44:34;;;;;;;2.73;2.60;;;14.70;71.60;;;;;;5055977;28;20431;-50
2020/12/15 08:47:01;;;;;;;2.70;2.50;;;14.80;71.50;;;;;;5055627;28;20431;-53
2020/12/15 08:49:28;;;;;;;3.10;3.00;;;14.80;71.40;;;;;;5056451;28;20470;-51
2020/12/15 08:51:55;;;;;;;3.10;2.90;;;14.70;71.70;;;;;;5075271;28;20512;-51
2020/12/15 08:54:24;;;;;;;3.10;2.90;;;14.80;71.60;;;;;;5074771;28;20552;-51
2020/12/15 08:56:50;;;;;;;3.47;2.93;;;14.80;71.60;;;;;;5075736;28;20437;-52
2020/12/15 08:59:18;;;;;;;4.30;2.57;;;14.90;71.50;;;;;;5066301;28;20470;-52
2020/12/15 09:01:45;;;;;;;2.93;2.77;;;14.90;71.40;;;;;;5067894;28;20456;-54
2020/12/15 09:04:13;;;;;;;2.80;2.60;;;14.90;71.50;;;;;;5075342;28;20438;-54
2020/12/15 09:06:40;;;;;;;3.30;2.80;;;14.90;71.40;;;;;;5074854;28;20453;-53
2020/12/15 09:09:07;;;;;;;2.33;2.23;;;15.10;71.00;;;;;;5074669;28;20563;-55
2020/12/15 09:11:35;;;;;;;3.40;3.07;;;15.20;70.70;;;;;;5074623;28;20571;-55
2020/12/15 09:14:03;;;;;;;3.07;2.80;;;15.10;70.70;;;;;;5075112;28;20464;-56
2020/12/15 09:16:32;;;;;;;3.17;2.97;;;15.20;70.80;;;;;;5074843;28;20448;-55
2020/12/15 09:19:09;;;;;;;2.63;2.50;;;15.30;70.50;;;;;;5075018;28;20528;-56
2020/12/15 09:21:36;;;;;;;3.33;3.07;;;15.30;70.20;;;;;;5074445;28;20476;-55
2020/12/15 09:24:03;;;;;;;2.83;2.73;;;15.20;70.80;;;;;;5074670;28;20496;-56
2020/12/15 09:26:30;;;;;;;3.43;3.13;;;15.20;70.80;;;;;;5074452;28;20480;-55
2020/12/15 09:29:06;;;;;;;2.90;2.80;;;15.10;70.80;;;;;;5074911;28;20438;-55
2020/12/15 09:31:33;;;;;;;2.70;2.60;;;15.20;71.00;;;;;;5074116;28;20492;-54
2020/12/15 09:34:00;;;;;;;3.27;3.00;;;15.10;71.20;;;;;;5074182;28;20445;-52
2020/12/15 09:36:27;;;;;;;3.23;3.00;;;15.10;71.30;;;;;;5074591;28;20468;-54
2020/12/15 09:38:53;;;;;;;3.20;2.90;;;15.10;71.10;;;;;;5074448;28;20517;-55
2020/12/15 09:41:20;;;;;;;2.60;2.50;;;15.10;71.20;;;;;;5074101;28;20510;-56
2020/12/15 09:43:48;;;;;;;3.10;2.70;;;15.20;71.20;;;;;;5074407;28;20553;-56
2020/12/15 09:46:15;;;;;;;2.50;2.40;;;15.10;71.20;;;;;;5074413;28;20467;-56
2020/12/15 09:48:42;;;;;;;2.53;2.43;;;15.10;71.30;;;;;;5074611;28;20430;-54
2020/12/15 09:51:11;;;;;;;3.30;3.00;;;15.20;71.30;;;;;;5074200;28;20561;-55
2020/12/15 09:53:38;;;;;;;2.57;2.47;;;15.10;71.30;;;;;;5054519;28;20501;-56
2020/12/15 09:56:04;;;;;;;2.40;2.30;;;15.10;71.60;;;;;;5054137;28;20468;-56
2020/12/15 09:58:45;;;;;;;4.47;2.70;;;15.10;71.50;;;;;;5054251;28;20517;-56
2020/12/15 10:01:20;;;;;;;3.30;3.00;;;15.20;71.60;;;;;;5063414;28;20436;-54
2020/12/15 10:03:47;;;;;;;6.20;2.70;;;15.10;71.60;;;;;;5074013;28;20472;-55
2020/12/15 10:06:14;;;;;;;3.07;2.87;;;15.20;71.60;;;;;;5073957;28;20515;-57
2020/12/15 10:08:42;;;;;;;2.50;2.40;;;15.10;71.60;;;;;;5074196;28;20484;-54
2020/12/15 10:11:13;;;;;;;3.03;2.83;;;15.20;71.70;;;;;;5055132;28;20680;-55
2020/12/15 10:13:40;;;;;;;2.30;2.20;;;15.20;71.50;;;;;;5053658;28;20473;-54
2020/12/15 10:16:07;;;;;;;5.67;2.67;;;15.20;71.60;;;;;;5054122;28;20489;-56
2020/12/15 10:18:35;;;;;;;2.60;2.40;;;15.30;71.50;;;;;;5060494;28;20452;-56
2020/12/15 10:21:02;;;;;;;3.03;2.83;;;15.30;71.50;;;;;;5073559;28;20472;-56
2020/12/15 10:23:32;;;;;;;2.80;2.70;;;15.20;71.50;;;;;;5072967;28;20469;-56
2020/12/15 10:25:59;;;;;;;2.53;2.27;;;15.20;71.70;;;;;;5073848;28;20445;-53
2020/12/15 10:28:26;;;;;;;2.60;2.40;;;15.20;71.90;;;;;;5074202;28;20591;-54
2020/12/15 10:30:53;;;;;;;2.80;2.60;;;15.20;71.70;;;;;;5073370;28;20469;-56
2020/12/15 10:33:19;;;;;;;3.10;2.90;;;15.20;71.80;;;;;;5074094;28;20499;-53
2020/12/15 10:36:02;;;;;;;2.60;2.50;;;15.20;71.80;;;;;;5073818;28;20446;-54
2020/12/15 10:38:29;;;;;;;2.57;2.47;;;15.30;71.80;;;;;;5073536;28;20470;-55
2020/12/15 10:40:57;;;;;;;3.00;2.30;;;15.30;71.70;;;;;;5073575;28;20541;-55
2020/12/15 10:43:24;;;;;;;2.83;2.63;;;15.30;71.50;;;;;;5073926;28;20445;-56
2020/12/15 10:45:51;;;;;;;3.57;2.70;;;15.40;71.50;;;;;;5060869;28;20439;-55
2020/12/15 10:48:17;;;;;;;2.60;2.50;;;15.30;71.50;;;;;;5053667;28;20502;-52
2020/12/15 10:50:44;;;;;;;2.60;2.40;;;15.40;71.50;;;;;;5053109;28;20446;-55
2020/12/15 10:53:12;;;;;;;3.40;2.30;;;15.40;71.70;;;;;;5053917;28;20485;-54
2020/12/15 10:55:39;;;;;;;3.00;2.80;;;15.30;71.70;;;;;;5073819;28;20461;-55
2020/12/15 10:58:06;;;;;;;2.60;2.50;;;15.30;71.80;;;;;;5073730;28;20465;-55
2020/12/15 11:00:33;;;;;;;3.17;2.97;;;15.30;71.80;;;;;;5073099;28;20429;-54
2020/12/15 11:03:00;;;;;;;2.70;2.60;;;15.20;72.00;;;;;;5065136;28;20457;-56
2020/12/15 11:05:27;;;;;;;2.53;2.43;;;15.30;71.90;;;;;;5053509;28;20536;-54
2020/12/15 11:07:53;;;;;;;2.50;2.30;;;15.30;72.00;;;;;;5053290;28;20438;-53
2020/12/15 11:10:21;;;;;;;2.30;2.20;;;15.30;71.80;;;;;;5053216;28;20473;-56
2020/12/15 11:12:48;;;;;;;2.50;2.40;;;15.30;71.90;;;;;;5069474;28;20576;-55
2020/12/15 11:15:15;;;;;;;2.60;2.40;;;15.20;72.10;;;;;;5073722;28;20469;-55
2020/12/15 11:17:42;;;;;;;2.43;2.33;;;15.40;71.90;;;;;;5073307;28;20444;-56
2020/12/15 11:20:09;;;;;;;1.97;1.87;;;15.50;71.60;;;;;;5072766;28;20529;-53
2020/12/15 11:22:36;;;;;;;2.80;2.60;;;15.50;71.50;;;;;;5073427;28;20472;-56
2020/12/15 11:25:03;;;;;;;2.40;2.30;;;15.60;71.30;;;;;;5075247;28;20527;-54
2020/12/15 11:27:30;;;;;;;2.40;2.30;;;15.60;71.00;;;;;;5076971;28;20488;-56
2020/12/15 11:29:57;;;;;;;2.63;2.53;;;15.70;70.80;;;;;;5076421;28;20433;-55
2020/12/15 11:32:31;;;;;;;2.87;2.67;;;15.70;71.10;;;;;;5077622;28;20477;-54
2020/12/15 11:34:58;;;;;;;2.77;2.60;;;15.60;71.30;;;;;;5076665;28;20475;-56
2020/12/15 11:37:25;;;;;;;3.97;2.90;;;15.50;71.60;;;;;;5076366;28;20473;-56
2020/12/15 11:39:52;;;;;;;2.80;2.57;;;15.40;71.70;;;;;;5056626;28;20508;-54
2020/12/15 11:42:18;;;;;;;2.80;2.60;;;15.50;71.80;;;;;;5056916;28;20430;-53
2020/12/15 11:44:55;;;;;;;2.53;2.43;;;15.50;71.70;;;;;;5056846;28;20434;-54
2020/12/15 11:47:23;;;;;;;2.50;2.40;;;15.50;71.80;;;;;;5056428;28;20469;-54
2020/12/15 11:49:51;;;;;;;2.80;2.60;;;15.50;71.90;;;;;;5056145;28;20499;-55
2020/12/15 11:52:22;;;;;;;2.97;2.67;;;15.50;71.80;;;;;;5056451;28;20509;-56
2020/12/15 11:54:49;;;;;;;3.07;2.77;;;15.50;72.00;;;;;;5056745;28;20526;-54
2020/12/15 11:57:17;;;;;;;2.90;2.60;;;15.60;71.70;;;;;;5074754;28;20579;-57
2020/12/15 11:59:44;;;;;;;2.87;2.77;;;15.60;71.70;;;;;;5075841;28;20434;-56
2020/12/15 12:02:12;;;;;;;3.00;2.87;;;15.50;71.80;;;;;;5075990;28;20433;-57
2020/12/15 12:04:39;;;;;;;2.70;2.60;;;15.50;71.90;;;;;;5070155;28;20431;-56
2020/12/15 12:07:06;;;;;;;3.70;2.80;;;15.50;71.90;;;;;;5056186;28;20533;-57
2020/12/15 12:09:33;;;;;;;3.00;2.80;;;15.60;71.80;;;;;;5056279;28;20494;-57
2020/12/15 12:12:00;;;;;;;3.03;2.63;;;15.50;71.80;;;;;;5055702;28;20494;-54
2020/12/15 12:14:27;;;;;;;3.30;3.10;;;15.60;71.70;;;;;;5070173;28;20460;-55
2020/12/15 12:16:54;;;;;;;2.80;2.63;;;15.50;71.80;;;;;;5076114;28;20529;-51
2020/12/15 12:19:21;;;;;;;3.40;3.10;;;15.50;71.90;;;;;;5076054;28;20503;-52
2020/12/15 12:21:48;;;;;;;2.57;2.47;;;15.50;71.90;;;;;;5075490;28;20524;-55
2020/12/15 12:24:15;;;;;;;2.83;2.73;;;15.50;72.10;;;;;;5076037;28;20477;-56
2020/12/15 12:26:42;;;;;;;2.80;2.57;;;15.50;72.30;;;;;;5076504;28;20469;-54
2020/12/15 12:29:09;;;;;;;3.13;2.90;;;15.50;72.30;;;;;;5075757;28;20528;-54
2020/12/15 12:31:36;;;;;;;3.03;2.83;;;15.50;72.20;;;;;;5075218;28;20565;-55
2020/12/15 12:34:02;;;;;;;2.70;2.60;;;15.50;72.00;;;;;;5075779;28;20499;-56
2020/12/15 12:36:31;;;;;;;3.60;3.40;;;15.50;72.30;;;;;;5075392;28;20464;-56
2020/12/15 12:38:59;;;;;;;3.53;3.33;;;15.60;72.10;;;;;;5075728;28;20438;-54
2020/12/15 12:41:25;;;;;;;6.80;3.23;;;15.50;72.10;;;;;;5056973;28;20439;-55
2020/12/15 12:44:05;;;;;;;6.07;3.37;;;15.50;72.40;;;;;;5056130;28;20481;-53
2020/12/15 12:46:32;;;;;;;3.80;2.87;;;15.60;72.30;;;;;;5055664;28;20478;-57
2020/12/15 12:49:00;;;;;;;2.57;2.47;;;15.60;72.10;;;;;;5063199;28;20522;-56
2020/12/15 12:51:28;;;;;;;3.10;2.90;;;15.60;72.20;;;;;;5075041;28;20555;-55